Time;durP1;ratioP1;P1;durP2;ratioP2;P2;SDS_P1;SDS_P2;PMS_P1;PMS_P2;Temp;Humidity;BMP_temperature;BMP_pressure;BME280_temperature;BME280_humidity;BME280_pressure;Samples;Min_cycle;Max_cycle;Signal;HPM_P1;HPM_P2
2022/10/23 00:00:02;;;;;;;2.35;2.25;;;;;;;8.45;65.84;93923.53;5090661;28;20112;-34
2022/10/23 00:02:27;;;;;;;1.63;1.55;;;;;;;8.38;65.94;93907.66;5090622;28;20038;-35
2022/10/23 00:04:53;;;;;;;6.18;3.10;;;;;;;8.42;66.28;93930.09;5094425;28;20020;-35
2022/10/23 00:07:18;;;;;;;3.40;2.92;;;;;;;8.58;65.62;93923.56;5095798;28;20119;-35
2022/10/23 00:09:44;;;;;;;6.60;5.07;;;;;;;8.52;65.80;93916.66;5093188;28;20032;-35
2022/10/23 00:12:09;;;;;;;2.92;2.75;;;;;;;8.38;65.61;93924.16;5089982;28;20102;-34
2022/10/23 00:14:35;;;;;;;1.13;1.13;;;;;;;8.34;65.43;93921.69;5089992;28;20089;-34
2022/10/23 00:17:00;;;;;;;3.67;3.05;;;;;;;8.25;65.84;93926.81;5091870;28;20028;-34
2022/10/23 00:19:26;;;;;;;3.78;2.65;;;;;;;8.28;66.08;93915.53;5092313;28;20055;-34
2022/10/23 00:21:51;;;;;;;1.88;1.77;;;;;;;8.32;65.48;93915.22;5091112;28;20128;-34
2022/10/23 00:24:17;;;;;;;2.80;2.60;;;;;;;8.32;65.46;93924.22;5090954;28;20020;-34
2022/10/23 00:26:42;;;;;;;1.23;1.23;;;;;;;8.17;65.90;93923.91;5096069;28;20031;-34
2022/10/23 00:29:09;;;;;;;2.70;2.55;;;;;;;8.24;64.97;93898.56;5097135;28;20557;-34
2022/10/23 00:31:35;;;;;;;3.78;3.20;;;;;;;8.22;65.62;93914.09;5091660;28;20488;-34
2022/10/23 00:34:00;;;;;;;2.25;2.15;;;;;;;8.11;66.07;93908.75;5075391;28;20024;-34
2022/10/23 00:36:26;;;;;;;1.85;1.75;;;;;;;8.25;65.33;93910.31;5091685;28;20521;-34
2022/10/23 00:38:51;;;;;;;4.72;3.70;;;;;;;8.23;64.97;93910.81;5095396;28;20053;-34
2022/10/23 00:41:20;;;;;;;2.80;2.65;;;;;;;8.08;65.79;93918.03;5063658;28;20025;-34
2022/10/23 00:44:10;;;;;;;2.35;2.22;;;;;;;7.94;66.52;93922.72;5089329;28;20052;-34
2022/10/23 00:46:37;;;;;;;5.90;3.35;;;;;;;8.06;66.47;93924.06;5071293;28;20028;-34
2022/10/23 00:49:03;;;;;;;1.67;1.60;;;;;;;7.94;66.62;93909.00;5092669;28;20032;-34
2022/10/23 00:51:37;;;;;;;2.08;1.98;;;;;;;7.84;66.96;93915.38;5094433;28;20435;-34
2022/10/23 00:54:02;;;;;;;2.42;2.33;;;;;;;7.93;67.53;93915.72;5090772;28;20024;-34
2022/10/23 00:56:29;;;;;;;2.25;2.15;;;;;;;7.85;67.84;93909.34;5089761;28;20545;-34
2022/10/23 00:58:55;;;;;;;1.98;1.80;;;;;;;7.90;67.34;93905.78;5071372;28;20050;-34
2022/10/23 01:01:22;;;;;;;4.80;3.45;;;;;;;7.89;67.06;93917.28;5089675;28;20024;-34
2022/10/23 01:03:47;;;;;;;1.95;1.60;;;;;;;8.02;67.10;93911.88;5089419;28;20030;-34
2022/10/23 01:06:22;;;;;;;1.23;1.13;;;;;;;8.02;66.74;93914.63;5089791;28;20028;-34
2022/10/23 01:09:14;;;;;;;3.40;2.58;;;;;;;7.86;67.29;93921.09;5089319;28;20081;-34
2022/10/23 01:12:09;;;;;;;1.60;1.50;;;;;;;7.85;67.73;93925.09;5089316;28;20035;-34
2022/10/23 01:14:53;;;;;;;2.28;2.17;;;;;;;7.97;67.76;93942.94;5078666;28;20040;-34
2022/10/23 01:17:24;;;;;;;1.33;1.27;;;;;;;7.89;67.76;93920.78;5089879;28;20035;-34
2022/10/23 01:20:19;;;;;;;0.63;0.63;;;;;;;8.15;67.20;93929.19;5093550;28;20031;-34
2022/10/23 01:23:08;;;;;;;2.67;2.47;;;;;;;8.19;67.68;93937.13;5089747;28;20076;-34
2022/10/23 01:25:55;;;;;;;1.13;1.13;;;;;;;8.04;67.94;93936.84;5089642;28;20020;-34
2022/10/23 01:28:36;;;;;;;5.57;2.80;;;;;;;8.06;69.27;93940.56;5092729;28;20039;-35
2022/10/23 01:31:07;;;;;;;0.68;0.68;;;;;;;7.99;69.54;93929.44;5072326;28;20071;-34
2022/10/23 01:33:42;;;;;;;2.20;2.05;;;;;;;7.97;70.18;93932.69;5078416;28;20024;-35
2022/10/23 01:36:11;;;;;;;4.18;3.30;;;;;;;8.02;70.15;93939.38;5079612;28;20476;-34
2022/10/23 01:38:43;;;;;;;2.90;2.75;;;;;;;8.02;69.43;93939.38;5074935;28;20114;-34
2022/10/23 01:41:27;;;;;;;2.05;1.95;;;;;;;8.14;69.27;93944.19;5093071;28;20030;-34
2022/10/23 01:44:00;;;;;;;0.73;0.73;;;;;;;8.25;68.27;93946.81;5095767;28;20052;-34
2022/10/23 01:46:26;;;;;;;2.97;2.78;;;;;;;8.31;67.66;93933.00;5074666;28;20117;-34
2022/10/23 01:48:53;;;;;;;3.53;3.20;;;;;;;8.23;68.16;93932.81;5092407;28;20151;-35
2022/10/23 01:51:22;;;;;;;7.25;2.53;;;;;;;8.07;68.87;93936.56;5076277;28;20031;-35
2022/10/23 01:53:48;;;;;;;2.13;1.95;;;;;;;7.96;69.60;93942.19;5091546;28;20050;-35
2022/10/23 01:56:21;;;;;;;4.22;3.92;;;;;;;8.13;69.32;93948.22;5075654;28;20039;-34
2022/10/23 01:58:49;;;;;;;3.35;2.92;;;;;;;8.22;69.31;93944.34;5075068;28;20036;-35
2022/10/23 02:01:16;;;;;;;7.70;5.25;;;;;;;8.15;69.97;93948.44;5076095;28;20483;-34
2022/10/23 02:03:42;;;;;;;1.30;1.30;;;;;;;8.19;69.98;93948.13;5075458;28;20016;-34
2022/10/23 02:06:07;;;;;;;2.70;1.73;;;;;;;8.22;68.72;93947.09;5080419;28;20020;-34
2022/10/23 02:08:33;;;;;;;2.35;2.15;;;;;;;8.23;68.95;93943.06;5092181;28;20492;-35
2022/10/23 02:11:07;;;;;;;3.22;2.97;;;;;;;8.21;68.91;93949.09;5074263;28;20048;-34
2022/10/23 02:13:45;;;;;;;3.95;3.53;;;;;;;8.02;69.69;93939.38;5074464;28;20020;-34
2022/10/23 02:16:17;;;;;;;2.47;2.28;;;;;;;8.17;69.69;93926.66;5093401;28;20024;-34
2022/10/23 02:18:53;;;;;;;2.10;1.90;;;;;;;7.99;70.11;93910.91;5091438;28;20512;-34
2022/10/23 02:22:00;;;;;;;3.88;3.58;;;;;;;8.04;71.05;93951.34;5095420;28;20089;-34
2022/10/23 02:24:33;;;;;;;2.13;1.95;;;;;;;8.09;71.13;93955.28;5024511;28;20107;-34
2022/10/23 02:27:02;;;;;;;2.05;1.95;;;;;;;8.14;71.52;93933.19;5090598;28;20055;-35
2022/10/23 02:29:32;;;;;;;5.70;4.60;;;;;;;8.18;71.84;93943.91;5091876;28;20492;-35
2022/10/23 02:31:58;;;;;;;4.10;2.50;;;;;;;8.08;72.49;93951.78;5095296;28;20042;-35
2022/10/23 02:34:23;;;;;;;1.48;1.42;;;;;;;8.26;73.81;93942.06;5075112;28;20098;-35
2022/10/23 02:36:49;;;;;;;1.17;1.17;;;;;;;8.23;74.78;93943.06;5092689;28;20028;-34
2022/10/23 02:39:15;;;;;;;4.03;3.45;;;;;;;8.38;74.34;93948.91;5096123;28;20032;-34
2022/10/23 02:41:51;;;;;;;2.58;2.20;;;;;;;8.62;73.45;93954.28;5093309;28;20059;-35
2022/10/23 02:44:36;;;;;;;1.25;1.20;;;;;;;8.70;73.23;93965.44;5096267;28;20413;-34
2022/10/23 02:47:35;;;;;;;2.83;2.47;;;;;;;8.77;72.55;93957.28;5078192;28;20032;-34
2022/10/23 02:50:06;;;;;;;1.83;1.73;;;;;;;8.72;72.53;93963.66;5090580;28;20063;-34
2022/10/23 02:52:41;;;;;;;0.63;0.63;;;;;;;8.82;71.94;93969.50;5093015;28;20020;-34
2022/10/23 02:55:28;;;;;;;1.70;1.60;;;;;;;8.85;71.99;93963.69;5073681;28;20036;-34
2022/10/23 02:58:08;;;;;;;1.38;1.27;;;;;;;9.03;71.35;93942.88;5084606;28;20028;-34
2022/10/23 03:00:35;;;;;;;1.63;1.52;;;;;;;8.90;71.36;93953.88;5091401;28;20103;-34
2022/10/23 03:03:13;;;;;;;4.03;2.45;;;;;;;9.04;71.53;93958.88;5078075;28;20554;-36
2022/10/23 03:05:39;;;;;;;2.20;2.10;;;;;;;8.93;71.60;93958.31;5091158;28;20024;-34
2022/10/23 03:08:07;;;;;;;3.22;3.00;;;;;;;8.86;72.12;93945.91;5071148;28;20111;-35
2022/10/23 03:10:33;;;;;;;1.00;1.00;;;;;;;9.03;71.79;93951.88;5079948;28;20036;-34
2022/10/23 03:12:58;;;;;;;4.35;3.78;;;;;;;8.92;72.10;93960.31;5090640;28;20043;-35
2022/10/23 03:15:24;;;;;;;3.95;3.65;;;;;;;8.99;72.13;93954.19;5102838;28;20023;-34
2022/10/23 03:17:49;;;;;;;1.75;1.65;;;;;;;9.03;71.69;93957.38;5091305;28;20589;-34
2022/10/23 03:20:15;;;;;;;2.30;1.92;;;;;;;8.88;71.52;93965.38;5091049;28;20107;-34
2022/10/23 03:22:41;;;;;;;1.63;1.55;;;;;;;9.00;71.13;93965.94;5091720;28;20024;-35
2022/10/23 03:25:06;;;;;;;0.63;0.63;;;;;;;8.90;71.72;93962.13;5090742;28;20016;-34
2022/10/23 03:27:32;;;;;;;1.38;1.27;;;;;;;8.91;71.71;93966.34;5091417;28;20032;-35
2022/10/23 03:29:58;;;;;;;1.83;1.73;;;;;;;8.78;71.99;93975.31;5090961;28;20024;-34
2022/10/23 03:32:23;;;;;;;1.42;1.33;;;;;;;8.67;72.04;93969.97;5090521;28;20020;-35
2022/10/23 03:34:49;;;;;;;1.23;1.13;;;;;;;8.64;72.42;93960.00;5091107;28;20028;-34
2022/10/23 03:37:14;;;;;;;1.13;1.13;;;;;;;8.72;72.21;93976.66;5090791;28;20031;-34
2022/10/23 03:39:40;;;;;;;3.63;3.05;;;;;;;8.67;72.41;93983.00;5094276;28;20034;-34
2022/10/23 03:42:05;;;;;;;2.25;2.15;;;;;;;8.57;72.43;93979.91;5090356;28;20032;-34
2022/10/23 03:44:31;;;;;;;1.98;1.88;;;;;;;8.58;72.35;93989.63;5089687;28;20119;-35
2022/10/23 03:46:56;;;;;;;3.92;2.05;;;;;;;8.50;72.63;93986.00;5090418;28;20416;-35
2022/10/23 03:49:22;;;;;;;1.92;1.83;;;;;;;8.52;72.67;93988.22;5088092;28;20475;-35
2022/10/23 03:51:51;;;;;;;3.75;3.47;;;;;;;8.43;72.89;93994.09;5090539;28;20023;-35
2022/10/23 03:54:20;;;;;;;;;;;;;;;8.63;72.45;93991.56;5086360;28;20024;-35
2022/10/23 03:56:45;;;;;;;;;;;;;;;8.54;72.84;94000.19;5074072;28;19919;-35
2022/10/23 03:59:11;;;;;;;2.05;1.83;;;;;;;8.65;72.64;94004.78;5095056;28;19908;-35
2022/10/23 04:01:36;;;;;;;1.80;1.70;;;;;;;8.56;72.95;94000.41;5090240;28;20035;-35
2022/10/23 04:04:02;;;;;;;0.55;0.55;;;;;;;8.72;72.23;93993.19;5091954;28;20016;-35
2022/10/23 04:06:27;;;;;;;3.17;2.75;;;;;;;8.74;72.32;93990.66;5091108;28;20085;-36
2022/10/23 04:08:53;;;;;;;1.55;1.45;;;;;;;8.73;72.64;93992.66;5091195;28;20412;-34
2022/10/23 04:11:18;;;;;;;1.60;1.50;;;;;;;8.80;72.61;93997.56;5092234;28;20562;-35
2022/10/23 04:13:44;;;;;;;2.15;1.95;;;;;;;8.81;73.10;94001.81;5092504;28;20498;-35
2022/10/23 04:16:10;;;;;;;6.00;3.42;;;;;;;8.75;73.23;93992.88;5093844;28;20024;-34
2022/10/23 04:18:35;;;;;;;2.10;2.00;;;;;;;8.83;73.39;94009.53;5089960;28;20032;-34
2022/10/23 04:21:01;;;;;;;5.78;3.03;;;;;;;8.78;73.54;94007.59;5096388;28;20027;-35
2022/10/23 04:23:26;;;;;;;1.15;1.15;;;;;;;8.66;72.92;94014.56;5093836;28;20031;-34
2022/10/23 04:25:56;;;;;;;3.75;3.53;;;;;;;8.57;72.89;94012.19;5089365;28;20020;-34
2022/10/23 04:28:21;;;;;;;4.10;3.70;;;;;;;8.67;72.32;94007.75;5092492;28;20047;-35
2022/10/23 04:30:46;;;;;;;2.45;2.25;;;;;;;8.61;72.36;94009.84;5090253;28;20104;-35
2022/10/23 04:33:12;;;;;;;19.13;3.92;;;;;;;8.54;72.51;94002.94;5089981;28;20035;-35
2022/10/23 04:35:37;;;;;;;10.55;3.83;;;;;;;8.39;72.69;94002.66;5089793;28;20035;-35
2022/10/23 04:38:03;;;;;;;4.93;4.40;;;;;;;8.45;72.15;94008.81;5089760;28;20407;-35
2022/10/23 04:40:28;;;;;;;2.75;2.20;;;;;;;8.37;72.46;94005.19;5088123;28;20100;-35
2022/10/23 04:42:54;;;;;;;12.25;2.38;;;;;;;8.26;72.88;94019.09;5090924;28;20051;-35
2022/10/23 04:45:19;;;;;;;3.25;3.00;;;;;;;8.28;73.47;94013.81;5095912;28;20506;-35
2022/10/23 04:47:45;;;;;;;2.58;2.42;;;;;;;8.21;73.37;94017.13;5093362;28;20511;-35
2022/10/23 04:50:10;;;;;;;2.17;2.08;;;;;;;8.05;74.63;94018.09;5092377;28;20384;-35
2022/10/23 04:52:36;;;;;;;0.68;0.68;;;;;;;8.07;75.33;94021.06;5096041;28;20085;-35
2022/10/23 04:55:01;;;;;;;1.30;1.17;;;;;;;8.21;74.80;94017.13;5094056;28;20031;-35
2022/10/23 04:57:27;;;;;;;1.17;1.17;;;;;;;8.25;73.86;94023.84;5098276;28;20032;-34
2022/10/23 04:59:52;;;;;;;2.47;2.38;;;;;;;8.07;74.07;94032.06;5090915;28;20031;-34
2022/10/23 05:02:18;;;;;;;2.60;2.50;;;;;;;8.08;73.96;94039.03;5094995;28;20031;-34
2022/10/23 05:04:43;;;;;;;2.65;2.55;;;;;;;8.26;73.57;94035.59;5093315;28;20028;-34
2022/10/23 05:07:09;;;;;;;2.22;2.13;;;;;;;8.24;73.50;94030.59;5075243;28;20024;-34
2022/10/23 05:09:34;;;;;;;1.42;1.42;;;;;;;8.27;72.77;94042.59;5093673;28;20415;-34
2022/10/23 05:12:00;;;;;;;2.63;2.53;;;;;;;8.22;72.52;94037.88;5093651;28;20027;-34
2022/10/23 05:14:25;;;;;;;4.72;4.32;;;;;;;8.18;72.38;94051.19;5096624;28;20522;-34
2022/10/23 05:16:56;;;;;;;5.55;4.53;;;;;;;8.25;72.55;94045.09;5093504;28;20027;-34
2022/10/23 05:19:26;;;;;;;3.17;3.03;;;;;;;8.42;73.07;94059.41;5096123;28;20028;-34
2022/10/23 05:21:54;;;;;;;1.30;1.27;;;;;;;8.38;73.74;94048.69;5094133;28;20024;-34
2022/10/23 05:24:21;;;;;;;1.10;1.08;;;;;;;8.44;74.04;94050.63;5094101;28;20485;-34
2022/10/23 05:26:50;;;;;;;2.05;1.95;;;;;;;8.45;74.03;94072.13;5094389;28;20043;-34
2022/10/23 05:29:16;;;;;;;2.22;2.10;;;;;;;8.56;73.93;94068.47;5090751;28;20036;-34
2022/10/23 05:31:41;;;;;;;3.40;2.95;;;;;;;8.65;73.18;94055.09;5076152;28;20028;-34
2022/10/23 05:34:07;;;;;;;2.55;2.15;;;;;;;8.70;72.58;94051.53;5096640;28;20409;-34
2022/10/23 05:36:33;;;;;;;1.73;1.63;;;;;;;8.78;72.27;94057.91;5097957;28;20503;-35
2022/10/23 05:38:58;;;;;;;3.65;2.22;;;;;;;8.61;72.77;94054.66;5094757;28;20063;-35
2022/10/23 05:41:24;;;;;;;3.92;3.53;;;;;;;8.69;73.23;94055.53;5078454;28;20035;-35
2022/10/23 05:43:49;;;;;;;2.45;2.17;;;;;;;8.69;73.78;94063.78;5094140;28;20040;-34
2022/10/23 05:46:15;;;;;;;2.88;2.70;;;;;;;8.77;73.27;94067.41;5095184;28;20038;-34
2022/10/23 05:48:40;;;;;;;4.68;4.25;;;;;;;8.49;72.20;94041.56;5097396;28;20059;-34
2022/10/23 05:51:08;;;;;;;8.63;5.57;;;;;;;8.62;72.37;94069.16;5096374;28;20016;-35
2022/10/23 05:53:33;;;;;;;4.25;3.85;;;;;;;8.68;72.50;94059.56;5074278;28;20039;-35
2022/10/23 05:56:06;;;;;;;3.65;3.22;;;;;;;8.86;72.07;94072.56;5097124;28;20028;-34
2022/10/23 06:05:02;;;;;;;7.38;2.22;;;;;;;8.80;74.40;94068.41;5071186;27;833042;-34
2022/10/23 06:07:29;;;;;;;2.03;1.92;;;;;;;8.90;75.04;94064.72;5110513;28;20120;-34
2022/10/23 06:09:54;;;;;;;1.85;1.48;;;;;;;9.08;74.66;94063.97;5105595;28;20020;-34
2022/10/23 06:12:21;;;;;;;1.63;1.55;;;;;;;9.37;73.72;94062.25;5108641;28;20034;-35
2022/10/23 06:14:46;;;;;;;1.45;1.35;;;;;;;9.45;73.18;94054.09;5106383;28;20080;-35
2022/10/23 06:17:12;;;;;;;3.53;3.22;;;;;;;9.82;71.28;94062.97;5107793;28;20023;-35
2022/10/23 06:19:37;;;;;;;8.10;1.50;;;;;;;10.26;69.96;94086.28;5108245;28;20399;-35
2022/10/23 06:22:04;;;;;;;0.55;0.55;;;;;;;10.55;69.10;94098.22;5113873;28;20048;-35
2022/10/23 06:24:29;;;;;;;2.22;1.23;;;;;;;10.86;68.01;94094.56;5108197;28;20016;-35
2022/10/23 06:26:55;;;;;;;1.95;1.85;;;;;;;11.15;67.13;94084.38;5106779;28;20035;-35
2022/10/23 06:29:20;;;;;;;1.75;1.52;;;;;;;11.44;67.29;94085.94;5103382;28;20613;-35
2022/10/23 06:31:46;;;;;;;5.47;1.73;;;;;;;11.93;65.58;94091.56;5101772;28;20030;-35
2022/10/23 06:34:12;;;;;;;1.38;1.38;;;;;;;12.64;63.11;94099.22;5105595;28;20054;-35
2022/10/23 06:36:37;;;;;;;4.63;2.58;;;;;;;13.52;60.55;94096.56;5107201;28;20016;-35
2022/10/23 06:39:04;;;;;;;0.82;0.82;;;;;;;14.31;56.36;94092.72;5106141;28;20031;-35
2022/10/23 06:41:29;;;;;;;2.08;1.98;;;;;;;15.15;53.75;94080.06;5108597;28;20111;-36
2022/10/23 06:43:55;;;;;;;1.58;1.23;;;;;;;16.12;51.88;94080.72;5104094;28;20095;-35
2022/10/23 06:46:20;;;;;;;0.60;0.60;;;;;;;16.86;49.19;94083.38;5109835;28;20027;-36
2022/10/23 06:48:46;;;;;;;0.73;0.73;;;;;;;17.76;48.56;94089.13;5106285;28;20030;-36
2022/10/23 06:51:14;;;;;;;0.75;0.70;;;;;;;19.14;44.38;94090.50;5109463;28;20030;-36
2022/10/23 06:53:39;;;;;;;2.80;1.45;;;;;;;20.12;42.57;94093.97;5109782;28;20016;-37
2022/10/23 06:56:06;;;;;;;0.50;0.50;;;;;;;20.19;40.87;94086.72;5107048;28;20038;-36
2022/10/23 06:58:32;;;;;;;1.10;1.05;;;;;;;20.80;40.49;94102.78;5107033;28;20030;-36
2022/10/23 07:01:03;;;;;;;1.50;1.42;;;;;;;21.63;38.77;94106.13;5106892;28;20111;-36
2022/10/23 07:03:28;;;;;;;2.47;2.38;;;;;;;22.16;38.25;94101.72;5093274;28;20045;-36
2022/10/23 07:05:54;;;;;;;4.60;1.98;;;;;;;23.08;35.66;94112.22;5104452;28;20036;-36
2022/10/23 07:08:20;;;;;;;2.78;2.58;;;;;;;24.04;34.80;94114.16;5107393;28;20022;-33
2022/10/23 07:10:47;;;;;;;1.88;1.77;;;;;;;24.67;34.02;94112.63;5108206;28;20019;-33
2022/10/23 07:13:13;;;;;;;1.92;1.75;;;;;;;25.19;32.86;94115.34;5107011;28;20095;-34
2022/10/23 07:15:39;;;;;;;1.58;1.48;;;;;;;25.00;33.32;94124.28;5096992;28;20028;-33
2022/10/23 07:18:05;;;;;;;0.95;0.95;;;;;;;24.64;33.34;94117.47;5099616;28;20023;-34
2022/10/23 07:20:32;;;;;;;2.42;2.05;;;;;;;25.03;33.57;94119.47;5092854;28;20495;-34
2022/10/23 07:22:58;;;;;;;8.18;1.08;;;;;;;24.53;33.79;94115.47;5092809;28;20035;-33
2022/10/23 07:25:25;;;;;;;1.60;1.50;;;;;;;24.61;33.93;94124.34;5096076;28;20020;-33
2022/10/23 07:27:51;;;;;;;7.95;1.65;;;;;;;24.46;34.19;94132.69;5095855;28;20118;-33
2022/10/23 07:30:17;;;;;;;1.25;1.13;;;;;;;24.54;34.28;94131.03;5091984;28;20099;-33
2022/10/23 07:32:43;;;;;;;1.13;1.10;;;;;;;25.07;33.44;94136.63;5089742;28;20054;-33
2022/10/23 07:35:12;;;;;;;0.93;0.93;;;;;;;24.78;33.50;94134.41;5086461;28;20048;-33
2022/10/23 07:37:37;;;;;;;1.42;1.33;;;;;;;24.84;34.00;94131.91;5091409;28;20024;-34
2022/10/23 07:40:04;;;;;;;2.50;1.33;;;;;;;24.74;33.87;94129.31;5090734;28;20051;-33
2022/10/23 07:42:30;;;;;;;0.47;0.47;;;;;;;25.28;33.21;94142.66;5089568;28;20024;-33
2022/10/23 07:44:55;;;;;;;2.90;1.83;;;;;;;25.39;33.05;94139.00;5088738;28;20381;-34
2022/10/23 07:47:21;;;;;;;4.03;1.60;;;;;;;25.58;32.71;94137.81;5088088;28;20024;-33
2022/10/23 07:49:47;;;;;;;1.10;1.00;;;;;;;25.52;33.30;94132.59;5093377;28;20620;-36
2022/10/23 07:52:13;;;;;;;6.38;0.88;;;;;;;25.63;33.08;94128.16;5089318;28;20060;-33
2022/10/23 07:54:39;;;;;;;0.77;0.60;;;;;;;25.50;32.91;94134.59;5089789;28;20855;-33
2022/10/23 07:57:06;;;;;;;0.68;0.68;;;;;;;25.61;33.66;94125.25;5089535;28;20115;-34
2022/10/23 07:59:33;;;;;;;1.90;1.75;;;;;;;25.93;32.72;94132.47;5086299;28;20055;-34
2022/10/23 08:01:59;;;;;;;1.23;1.00;;;;;;;25.83;32.89;94134.06;5087390;28;20180;-34
2022/10/23 08:04:25;;;;;;;1.60;1.50;;;;;;;26.00;33.01;94133.47;5085865;28;20541;-34
2022/10/23 08:06:51;;;;;;;3.20;1.60;;;;;;;25.89;33.16;94132.28;5085050;28;20035;-34
2022/10/23 08:09:17;;;;;;;3.45;2.45;;;;;;;25.58;33.60;94122.97;5088604;28;20077;-34
2022/10/23 08:11:43;;;;;;;1.80;1.70;;;;;;;25.60;34.26;94125.88;5087161;28;20546;-34
2022/10/23 08:14:09;;;;;;;0.50;0.50;;;;;;;25.23;35.02;94126.84;5088307;28;20100;-34
2022/10/23 08:16:37;;;;;;;0.70;0.70;;;;;;;25.31;34.72;94135.03;5087228;28;20028;-34
2022/10/23 08:19:05;;;;;;;0.73;0.70;;;;;;;25.25;34.71;94120.59;5087993;28;20502;-35
2022/10/23 08:21:31;;;;;;;0.87;0.70;;;;;;;24.51;36.30;94132.28;5084600;28;20146;-35
2022/10/23 08:23:58;;;;;;;1.23;0.90;;;;;;;24.39;36.52;94123.16;5087543;28;20024;-36
2022/10/23 08:26:28;;;;;;;1.17;1.10;;;;;;;24.44;36.76;94127.69;5085625;28;20482;-36
2022/10/23 08:28:54;;;;;;;0.30;0.30;;;;;;;24.47;36.88;94126.41;5084822;28;20548;-36
2022/10/23 08:31:21;;;;;;;0.60;0.60;;;;;;;24.41;36.95;94131.00;5085827;28;20607;-34
2022/10/23 08:33:47;;;;;;;0.73;0.73;;;;;;;24.14;37.42;94125.31;5087864;28;20019;-36
2022/10/23 08:36:15;;;;;;;2.55;1.60;;;;;;;24.34;37.46;94129.97;5087437;28;20032;-34
2022/10/23 08:38:41;;;;;;;1.55;1.25;;;;;;;24.56;36.62;94131.13;5089021;28;20567;-34
2022/10/23 08:41:27;;;;;;;0.85;0.85;;;;;;;24.90;36.56;94132.25;5083611;28;20235;-34
2022/10/23 08:43:59;;;;;;;3.30;1.60;;;;;;;24.37;36.97;94123.06;5086478;28;20173;-36
2022/10/23 08:46:29;;;;;;;1.15;1.10;;;;;;;24.57;36.90;94121.31;5067899;28;20064;-36
2022/10/23 08:49:18;;;;;;;6.53;1.02;;;;;;;24.86;36.61;94134.84;5086430;28;20517;-34
2022/10/23 08:51:46;;;;;;;0.30;0.30;;;;;;;24.91;36.58;94139.34;5087428;28;20024;-34
2022/10/23 08:54:22;;;;;;;1.35;1.25;;;;;;;24.74;36.86;94140.59;5068618;28;20016;-34
2022/10/23 08:56:51;;;;;;;0.93;0.70;;;;;;;24.99;36.53;94139.03;5090823;28;20555;-36
2022/10/23 08:59:21;;;;;;;1.25;1.15;;;;;;;24.93;36.62;94125.31;5068636;28;20461;-36
2022/10/23 09:01:53;;;;;;;1.15;0.95;;;;;;;25.21;36.45;94131.69;5064247;28;20028;-36
2022/10/23 09:04:18;;;;;;;0.30;0.30;;;;;;;25.35;36.12;94127.47;5078015;28;20051;-37
2022/10/23 09:07:02;;;;;;;1.80;1.70;;;;;;;25.06;36.83;94130.22;5071951;28;20027;-36
2022/10/23 09:10:22;;;;;;;0.47;0.47;;;;;;;25.28;36.62;94139.09;5088732;28;20114;-36
2022/10/23 09:12:48;;;;;;;2.03;1.85;;;;;;;25.14;36.44;94136.31;5023296;28;20452;-34
2022/10/23 09:15:22;;;;;;;1.65;1.33;;;;;;;25.38;36.65;94137.50;5071706;28;20027;-34
2022/10/23 09:17:54;;;;;;;0.65;0.57;;;;;;;25.39;36.14;94130.50;5074404;28;20100;-34
2022/10/23 09:20:22;;;;;;;0.43;0.43;;;;;;;25.32;36.30;94130.81;5076190;28;20028;-33
2022/10/23 09:22:53;;;;;;;0.93;0.90;;;;;;;25.52;35.61;94117.72;5087313;28;20024;-33
2022/10/23 09:25:33;;;;;;;1.65;0.68;;;;;;;25.63;35.65;94122.50;5068747;28;20051;-36
2022/10/23 09:28:00;;;;;;;2.15;1.38;;;;;;;26.04;34.72;94113.84;5086814;28;20024;-36
2022/10/23 09:30:40;;;;;;;0.68;0.52;;;;;;;26.15;34.66;94116.56;5090388;28;20035;-34
2022/10/23 09:33:22;;;;;;;0.20;0.20;;;;;;;26.30;34.22;94118.69;5087932;28;20464;-34
2022/10/23 09:35:58;;;;;;;1.73;1.02;;;;;;;26.60;33.87;94110.81;5088894;28;20483;-34
2022/10/23 09:38:43;;;;;;;22.58;2.13;;;;;;;27.14;33.37;94112.50;5092237;28;20023;-34
2022/10/23 09:41:36;;;;;;;0.43;0.43;;;;;;;27.20;32.48;94115.59;5091850;28;20027;-34
2022/10/23 09:44:16;;;;;;;0.95;0.95;;;;;;;27.40;32.21;94116.50;5077532;28;20104;-34
2022/10/23 09:46:44;;;;;;;1.13;1.13;;;;;;;26.99;32.43;94118.94;5078628;28;20037;-34
2022/10/23 09:49:22;;;;;;;0.20;0.20;;;;;;;27.55;31.89;94117.81;5095440;28;20052;-34
2022/10/23 09:51:50;;;;;;;4.53;0.75;;;;;;;27.82;31.21;94111.09;5089345;28;20024;-34
2022/10/23 09:54:16;;;;;;;1.88;0.77;;;;;;;27.84;31.14;94114.75;5087697;28;20107;-33
2022/10/23 09:56:46;;;;;;;1.60;1.05;;;;;;;28.08;30.67;94110.09;5087738;28;20225;-34
2022/10/23 09:59:12;;;;;;;0.50;0.50;;;;;;;27.92;30.64;94115.09;5087148;28;20019;-34
2022/10/23 10:01:59;;;;;;;0.20;0.20;;;;;;;27.98;31.02;94106.13;5089542;28;20024;-34
2022/10/23 10:04:36;;;;;;;0.20;0.20;;;;;;;28.60;29.93;94104.97;5091622;28;20527;-34
2022/10/23 10:07:05;;;;;;;0.70;0.70;;;;;;;28.49;29.79;94090.38;5088197;28;20027;-34
2022/10/23 10:09:30;;;;;;;;;;;;;;;28.99;29.30;94094.34;5089484;28;20047;-34
2022/10/23 10:12:23;;;;;;;0.43;0.40;;;;;;;28.99;28.98;94100.03;5088748;28;19955;-34
2022/10/23 10:15:13;;;;;;;1.40;1.15;;;;;;;29.42;27.77;94102.28;5043884;28;20067;-34
2022/10/23 10:18:03;;;;;;;0.88;0.65;;;;;;;29.38;28.31;94104.97;5062489;28;20024;-34
2022/10/23 10:20:55;;;;;;;0.45;0.45;;;;;;;29.61;27.34;94092.22;5088260;28;20036;-34
2022/10/23 10:23:26;;;;;;;3.42;0.85;;;;;;;29.88;27.09;94095.31;5050907;28;20498;-34
2022/10/23 10:26:12;;;;;;;0.65;0.65;;;;;;;30.11;27.03;94093.16;5081177;28;20032;-34
2022/10/23 10:29:17;;;;;;;36.60;4.00;;;;;;;28.96;27.85;94092.06;5082979;28;20020;-34
2022/10/23 10:31:57;;;;;;;0.25;0.20;;;;;;;29.09;27.62;94068.38;5096556;28;20020;-34
2022/10/23 10:34:59;;;;;;;2.17;0.82;;;;;;;29.54;27.28;94082.75;5074779;28;20457;-34
2022/10/23 10:37:45;;;;;;;0.10;0.10;;;;;;;29.22;27.05;94067.44;5016640;28;20100;-35
2022/10/23 10:40:33;;;;;;;0.20;0.20;;;;;;;29.70;27.00;94069.06;5071673;28;20035;-36
2022/10/23 10:43:21;;;;;;;;;;;;;;;29.18;27.21;94058.78;5089143;28;20388;-36
2022/10/23 10:45:48;;;;;;;0.20;0.20;;;;;;;29.00;27.36;94064.53;5083701;28;19980;-34
2022/10/23 10:48:33;;;;;;;8.43;0.40;;;;;;;29.78;26.69;94065.75;5087373;28;20040;-34
2022/10/23 10:51:04;;;;;;;0.30;0.30;;;;;;;29.69;26.74;94073.28;5088734;28;20404;-35
2022/10/23 10:53:47;;;;;;;0.38;0.38;;;;;;;29.01;27.66;94070.94;5090132;28;20405;-34
2022/10/23 10:56:15;;;;;;;0.20;0.20;;;;;;;28.99;27.77;94068.03;5087322;28;20032;-34
2022/10/23 10:58:52;;;;;;;0.45;0.43;;;;;;;28.72;27.80;94071.34;5088223;28;20020;-34
2022/10/23 11:01:25;;;;;;;0.38;0.38;;;;;;;28.53;27.95;94067.78;5091481;28;20038;-34
2022/10/23 11:04:20;;;;;;;0.15;0.15;;;;;;;28.80;28.05;94072.34;5070188;28;20060;-34
2022/10/23 11:06:50;;;;;;;0.20;0.20;;;;;;;28.91;27.87;94068.47;5083802;28;20100;-34
2022/10/23 11:09:20;;;;;;;0.73;0.55;;;;;;;29.36;26.89;94059.41;5089858;28;20067;-35
2022/10/23 11:11:47;;;;;;;0.10;0.10;;;;;;;29.39;26.79;94060.19;5091812;28;20403;-34
2022/10/23 11:14:18;;;;;;;0.13;0.13;;;;;;;29.06;27.14;94053.34;5088780;28;20024;-34
2022/10/23 11:16:58;;;;;;;0.57;0.32;;;;;;;28.72;27.13;94059.97;5088228;28;20028;-34
2022/10/23 11:19:36;;;;;;;0.10;0.10;;;;;;;28.52;27.69;94059.94;5091207;28;20577;-34
2022/10/23 11:22:35;;;;;;;0.28;0.28;;;;;;;28.13;28.25;94040.69;5083756;28;20107;-34
2022/10/23 11:25:16;;;;;;;0.45;0.45;;;;;;;28.26;28.05;94039.06;5084722;28;20107;-34
2022/10/23 11:28:26;;;;;;;8.98;3.58;;;;;;;28.03;27.75;94036.75;5091586;28;20107;-34
2022/10/23 11:31:22;;;;;;;0.20;0.20;;;;;;;27.11;29.15;94036.53;5010563;28;20080;-34
2022/10/23 11:34:00;;;;;;;28.52;1.75;;;;;;;26.20;30.54;94041.78;5007187;28;20029;-37
2022/10/23 11:37:05;;;;;;;0.75;0.50;;;;;;;26.14;30.35;94043.63;5067771;28;20655;-37
2022/10/23 11:39:36;;;;;;;0.10;0.10;;;;;;;26.34;30.37;94041.69;5084130;28;20511;-36
2022/10/23 11:42:05;;;;;;;0.10;0.10;;;;;;;26.03;30.80;94036.00;5070176;28;20047;-36
2022/10/23 11:44:33;;;;;;;;;;;;;;;25.40;31.55;94026.63;5088434;28;20088;-37
2022/10/23 11:47:05;;;;;;;0.65;0.57;;;;;;;25.09;32.59;94032.91;5087960;28;20470;-36
2022/10/23 11:49:31;;;;;;;0.20;0.20;;;;;;;25.26;32.13;94020.28;5087520;28;20040;-36
2022/10/23 11:52:04;;;;;;;3.28;0.65;;;;;;;24.76;32.79;94022.09;5089055;28;20024;-36
2022/10/23 11:54:31;;;;;;;0.50;0.50;;;;;;;24.92;32.81;94030.66;5070931;28;20567;-36
2022/10/23 11:57:12;;;;;;;0.10;0.10;;;;;;;24.61;33.12;94025.53;5092700;28;20085;-36
2022/10/23 11:59:44;;;;;;;0.32;0.32;;;;;;;24.48;33.40;94017.06;5083690;28;20499;-36
2022/10/23 12:02:39;;;;;;;0.75;0.55;;;;;;;24.40;33.26;94016.66;5085007;28;20107;-36